Time;durP1;ratioP1;P1;durP2;ratioP2;P2;SDS_P1;SDS_P2;PMS_P1;PMS_P2;Temp;Humidity;BMP_temperature;BMP_pressure;BME280_temperature;BME280_humidity;BME280_pressure;Samples;Min_cycle;Max_cycle;Signal;HPM_P1;HPM_P2
2022/09/17 00:01:04;;;;;;;1.10;0.37;;;;;;;;;;5012810;28;20205;-58
2022/09/17 00:03:32;;;;;;;0.30;0.17;;;;;;;;;;5023404;28;20282;-58
2022/09/17 00:06:00;;;;;;;0.10;0.10;;;;;;;;;;5027729;28;20210;-58
2022/09/17 00:08:27;;;;;;;0.53;0.10;;;;;;;;;;5015903;28;20503;-58
2022/09/17 00:10:56;;;;;;;0.50;0.30;;;;;;;;;;5020047;28;20201;-58
2022/09/17 00:13:23;;;;;;;0.47;0.20;;;;;;;;;;5015973;28;20205;-57
2022/09/17 00:15:51;;;;;;;0.53;0.40;;;;;;;;;;5018753;28;20298;-58
2022/09/17 00:18:18;;;;;;;1.40;0.40;;;;;;;;;;5016825;28;20229;-58
2022/09/17 00:20:46;;;;;;;8.07;0.30;;;;;;;;;;5012102;28;20209;-58
2022/09/17 00:23:13;;;;;;;0.20;0.20;;;;;;;;;;5020597;28;20835;-58
2022/09/17 00:25:41;;;;;;;0.20;0.20;;;;;;;;;;5025231;28;20244;-58
2022/09/17 00:28:10;;;;;;;1.70;0.20;;;;;;;;;;5017643;28;20628;-58
2022/09/17 00:30:39;;;;;;;0.20;0.20;;;;;;;;;;5019254;28;20619;-58
2022/09/17 00:33:06;;;;;;;0.27;0.27;;;;;;;;;;5017620;28;20224;-58
2022/09/17 00:35:33;;;;;;;1.60;0.30;;;;;;;;;;5018598;28;20718;-58
2022/09/17 00:38:00;;;;;;;0.37;0.37;;;;;;;;;;5015195;28;20236;-58
2022/09/17 00:40:27;;;;;;;0.40;0.40;;;;;;;;;;5008791;28;20209;-58
2022/09/17 00:42:54;;;;;;;0.67;0.40;;;;;;;;;;5012634;28;20220;-58
2022/09/17 00:45:23;;;;;;;0.63;0.20;;;;;;;;;;5014924;28;20216;-58
2022/09/17 00:47:53;;;;;;;2.77;0.27;;;;;;;;;;5017205;28;20215;-58
2022/09/17 00:50:22;;;;;;;0.93;0.20;;;;;;;;;;5022559;28;20774;-57
2022/09/17 00:52:52;;;;;;;3.80;0.40;;;;;;;;;;5021446;28;20200;-58
2022/09/17 00:55:21;;;;;;;0.20;0.20;;;;;;;;;;5020231;28;20208;-58
2022/09/17 00:57:49;;;;;;;0.40;0.40;;;;;;;;;;5027719;28;20231;-56
2022/09/17 01:00:17;;;;;;;0.20;0.20;;;;;;;;;;5025448;28;20201;-57
2022/09/17 01:02:45;;;;;;;0.20;0.20;;;;;;;;;;5015515;28;20246;-58
2022/09/17 01:05:13;;;;;;;0.20;0.20;;;;;;;;;;5009615;28;20204;-58
2022/09/17 01:07:48;;;;;;;0.27;0.27;;;;;;;;;;5019953;28;21189;-57
2022/09/17 01:10:21;;;;;;;0.10;0.10;;;;;;;;;;5018275;28;20208;-58
2022/09/17 01:12:57;;;;;;;0.23;0.17;;;;;;;;;;5009382;28;20208;-58
2022/09/17 01:15:28;;;;;;;0.60;0.40;;;;;;;;;;5018877;28;20673;-57
2022/09/17 01:18:05;;;;;;;0.33;0.33;;;;;;;;;;5028073;28;20244;-57
2022/09/17 01:20:41;;;;;;;2.03;0.30;;;;;;;;;;5023453;28;20287;-58
2022/09/17 01:23:26;;;;;;;5.10;0.23;;;;;;;;;;5026572;28;20212;-58
2022/09/17 01:25:58;;;;;;;0.20;0.20;;;;;;;;;;5013355;28;20251;-57
2022/09/17 01:28:37;;;;;;;0.30;0.30;;;;;;;;;;5015811;28;20201;-58
2022/09/17 01:31:22;;;;;;;2.63;0.53;;;;;;;;;;5008882;28;20201;-58
2022/09/17 01:33:54;;;;;;;0.57;0.27;;;;;;;;;;5008099;28;20278;-58
2022/09/17 01:36:24;;;;;;;0.47;0.40;;;;;;;;;;5020385;28;20255;-57
2022/09/17 01:38:53;;;;;;;0.37;0.37;;;;;;;;;;5028209;28;20278;-58
2022/09/17 01:41:26;;;;;;;0.30;0.30;;;;;;;;;;5023424;28;20227;-58
2022/09/17 01:43:56;;;;;;;2.10;0.40;;;;;;;;;;5029421;28;20251;-58
2022/09/17 01:46:25;;;;;;;0.20;0.20;;;;;;;;;;5024291;28;20746;-58
2022/09/17 01:48:57;;;;;;;1.20;0.30;;;;;;;;;;5019551;28;20619;-57
2022/09/17 01:51:24;;;;;;;0.53;0.47;;;;;;;;;;5022357;28;20200;-58
2022/09/17 01:53:54;;;;;;;0.77;0.40;;;;;;;;;;5020026;28;20220;-58
2022/09/17 01:56:23;;;;;;;0.27;0.27;;;;;;;;;;5021324;28;20208;-58
2022/09/17 01:58:52;;;;;;;0.63;0.33;;;;;;;;;;5020765;28;20256;-58
2022/09/17 02:01:21;;;;;;;0.40;0.40;;;;;;;;;;5022575;28;20201;-58
2022/09/17 02:03:54;;;;;;;5.27;0.40;;;;;;;;;;5021295;28;20200;-59
2022/09/17 02:06:26;;;;;;;0.93;0.40;;;;;;;;;;5019310;28;20713;-59
2022/09/17 02:08:55;;;;;;;0.27;0.27;;;;;;;;;;5021609;28;20296;-59
2022/09/17 02:11:22;;;;;;;0.40;0.40;;;;;;;;;;5019347;28;20705;-58
2022/09/17 02:13:52;;;;;;;0.30;0.30;;;;;;;;;;5021937;28;20262;-57
2022/09/17 02:16:22;;;;;;;2.63;0.40;;;;;;;;;;5019271;28;20212;-57
2022/09/17 02:18:50;;;;;;;0.30;0.30;;;;;;;;;;5020774;28;20240;-58
2022/09/17 02:21:22;;;;;;;1.97;0.30;;;;;;;;;;5021167;28;20209;-57
2022/09/17 02:23:53;;;;;;;2.83;0.53;;;;;;;;;;5017553;28;20205;-59
2022/09/17 02:26:21;;;;;;;2.63;0.67;;;;;;;;;;5021872;28;20309;-58
2022/09/17 02:28:50;;;;;;;2.30;0.40;;;;;;;;;;5019330;28;20232;-58
2022/09/17 02:31:17;;;;;;;0.90;0.70;;;;;;;;;;5019129;28;20240;-58
2022/09/17 02:33:46;;;;;;;0.30;0.30;;;;;;;;;;5023339;28;20209;-59
2022/09/17 02:36:13;;;;;;;0.67;0.50;;;;;;;;;;5017489;28;20624;-58
2022/09/17 02:38:42;;;;;;;1.00;0.50;;;;;;;;;;5025533;28;20236;-59
2022/09/17 02:41:14;;;;;;;0.30;0.30;;;;;;;;;;5026160;28;20686;-58
2022/09/17 02:43:46;;;;;;;2.10;0.50;;;;;;;;;;5020455;28;20204;-58
2022/09/17 02:46:23;;;;;;;1.37;0.50;;;;;;;;;;5018920;28;20204;-58
2022/09/17 02:49:02;;;;;;;0.50;0.50;;;;;;;;;;5031082;28;20211;-58
2022/09/17 02:51:33;;;;;;;0.93;0.40;;;;;;;;;;5019206;28;20224;-58
2022/09/17 02:54:06;;;;;;;0.23;0.23;;;;;;;;;;5029054;28;20209;-59
2022/09/17 02:56:44;;;;;;;1.90;0.57;;;;;;;;;;5012780;28;20205;-58
2022/09/17 02:59:15;;;;;;;1.03;0.63;;;;;;;;;;5027270;28;20289;-58
2022/09/17 03:01:44;;;;;;;0.30;0.30;;;;;;;;;;5012775;28;20212;-58
2022/09/17 03:04:14;;;;;;;1.77;0.47;;;;;;;;;;5020942;28;20283;-58
2022/09/17 03:06:41;;;;;;;0.37;0.30;;;;;;;;;;5028389;28;20219;-58
2022/09/17 03:09:08;;;;;;;0.50;0.50;;;;;;;;;;5015512;28;20201;-58
2022/09/17 03:11:37;;;;;;;2.97;0.50;;;;;;;;;;5011564;28;20216;-58
2022/09/17 03:14:04;;;;;;;1.60;0.40;;;;;;;;;;5023085;28;20312;-58
2022/09/17 03:16:31;;;;;;;1.50;0.60;;;;;;;;;;5025806;28;20631;-58
2022/09/17 03:18:58;;;;;;;5.13;0.60;;;;;;;;;;5028814;28;20239;-58
2022/09/17 03:21:25;;;;;;;0.50;0.50;;;;;;;;;;5025084;28;20243;-58
2022/09/17 03:23:52;;;;;;;0.73;0.50;;;;;;;;;;5013180;28;20240;-63
2022/09/17 03:26:19;;;;;;;0.40;0.40;;;;;;;;;;5018454;28;20339;-59
2022/09/17 03:28:48;;;;;;;0.40;0.40;;;;;;;;;;5012144;28;20251;-58
2022/09/17 03:31:15;;;;;;;2.87;0.60;;;;;;;;;;5011631;28;20220;-58
2022/09/17 03:33:42;;;;;;;0.50;0.50;;;;;;;;;;5017492;28;20208;-58
2022/09/17 03:36:09;;;;;;;0.40;0.40;;;;;;;;;;5020236;28;20227;-58
2022/09/17 03:38:37;;;;;;;0.53;0.33;;;;;;;;;;5029198;28;20516;-58
2022/09/17 03:41:06;;;;;;;0.50;0.50;;;;;;;;;;5024208;28;20294;-58
2022/09/17 03:43:33;;;;;;;0.73;0.30;;;;;;;;;;5010792;28;20201;-58
2022/09/17 03:46:01;;;;;;;0.50;0.47;;;;;;;;;;5011495;28;20208;-59
2022/09/17 03:48:29;;;;;;;1.43;0.50;;;;;;;;;;5024571;28;20208;-58
2022/09/17 03:50:56;;;;;;;1.70;0.60;;;;;;;;;;5015384;28;20722;-59
2022/09/17 03:53:23;;;;;;;1.13;0.40;;;;;;;;;;5019421;28;20291;-58
2022/09/17 03:55:50;;;;;;;0.50;0.50;;;;;;;;;;5014881;28;20212;-58
2022/09/17 03:58:17;;;;;;;0.57;0.50;;;;;;;;;;5023305;28;20647;-59
2022/09/17 04:00:45;;;;;;;2.17;0.63;;;;;;;;;;5023176;28;20217;-58
2022/09/17 04:03:13;;;;;;;1.30;0.90;;;;;;;;;;5026964;28;20217;-58
2022/09/17 04:05:40;;;;;;;0.60;0.60;;;;;;;;;;5022196;28;20286;-58
2022/09/17 04:08:07;;;;;;;0.50;0.50;;;;;;;;;;5017940;28;20235;-59
2022/09/17 04:10:34;;;;;;;0.40;0.40;;;;;;;;;;5022059;28;20479;-58
2022/09/17 04:13:01;;;;;;;0.50;0.50;;;;;;;;;;5011625;28;20240;-58
2022/09/17 04:15:28;;;;;;;0.60;0.60;;;;;;;;;;5009235;28;20209;-59
2022/09/17 04:17:57;;;;;;;0.57;0.57;;;;;;;;;;5009160;28;20232;-58
2022/09/17 04:20:26;;;;;;;0.67;0.67;;;;;;;;;;5018229;28;20296;-59
2022/09/17 04:22:53;;;;;;;0.67;0.60;;;;;;;;;;5018075;28;20268;-58
2022/09/17 04:25:20;;;;;;;0.70;0.70;;;;;;;;;;5018800;28;20232;-58
2022/09/17 04:27:47;;;;;;;0.60;0.60;;;;;;;;;;5025123;28;20258;-59
2022/09/17 04:30:15;;;;;;;0.97;0.80;;;;;;;;;;5007584;28;20201;-58
2022/09/17 04:32:42;;;;;;;5.30;0.83;;;;;;;;;;5016597;28;20209;-59
2022/09/17 04:35:09;;;;;;;0.50;0.50;;;;;;;;;;5012250;28;20220;-59
2022/09/17 04:37:37;;;;;;;0.83;0.83;;;;;;;;;;5018977;28;20235;-59
2022/09/17 04:40:05;;;;;;;2.40;0.67;;;;;;;;;;5024064;28;20224;-58
2022/09/17 04:42:32;;;;;;;2.13;0.80;;;;;;;;;;5025758;28;20208;-59
2022/09/17 04:44:59;;;;;;;1.03;0.60;;;;;;;;;;5019955;28;20216;-58
2022/09/17 04:47:26;;;;;;;0.67;0.53;;;;;;;;;;5024342;28;20259;-58
2022/09/17 04:49:53;;;;;;;3.80;0.80;;;;;;;;;;5021055;28;20201;-59
2022/09/17 04:52:20;;;;;;;0.60;0.60;;;;;;;;;;5018131;28;20209;-58
2022/09/17 04:54:48;;;;;;;0.73;0.73;;;;;;;;;;5018559;28;20678;-58
2022/09/17 04:57:15;;;;;;;0.50;0.50;;;;;;;;;;5015493;28;20216;-59
2022/09/17 04:59:42;;;;;;;0.73;0.73;;;;;;;;;;5012792;28;20926;-59
2022/09/17 05:02:09;;;;;;;0.43;0.43;;;;;;;;;;5011787;28;20212;-58
2022/09/17 05:04:36;;;;;;;0.93;0.60;;;;;;;;;;5010394;28;20209;-58
2022/09/17 05:07:03;;;;;;;0.60;0.60;;;;;;;;;;5017969;28;20209;-59
2022/09/17 05:09:30;;;;;;;0.77;0.67;;;;;;;;;;5025640;28;20200;-59
2022/09/17 05:11:59;;;;;;;0.70;0.70;;;;;;;;;;5014875;28;20212;-59
2022/09/17 05:14:26;;;;;;;0.50;0.50;;;;;;;;;;5008772;28;20576;-58
2022/09/17 05:16:53;;;;;;;1.97;0.77;;;;;;;;;;5017280;28;20315;-58
2022/09/17 05:19:20;;;;;;;1.07;0.90;;;;;;;;;;5025215;28;20225;-59
2022/09/17 05:21:47;;;;;;;2.73;0.60;;;;;;;;;;5019657;28;20204;-61
2022/09/17 05:24:14;;;;;;;0.57;0.57;;;;;;;;;;5019836;28;20247;-59
2022/09/17 05:26:41;;;;;;;0.90;0.70;;;;;;;;;;5027936;28;20718;-58
2022/09/17 05:29:09;;;;;;;2.93;0.70;;;;;;;;;;5026037;28;20201;-58
2022/09/17 05:31:36;;;;;;;1.80;0.60;;;;;;;;;;5020923;28;20209;-58
2022/09/17 05:34:04;;;;;;;0.60;0.60;;;;;;;;;;5021924;28;20603;-58
2022/09/17 05:36:31;;;;;;;0.50;0.50;;;;;;;;;;5024053;28;20211;-58
2022/09/17 05:38:58;;;;;;;0.50;0.50;;;;;;;;;;5025156;28;20228;-57
2022/09/17 05:41:25;;;;;;;1.23;0.77;;;;;;;;;;5021805;28;20210;-58
2022/09/17 05:43:52;;;;;;;3.40;0.73;;;;;;;;;;5028650;28;20220;-60
2022/09/17 05:46:20;;;;;;;0.50;0.50;;;;;;;;;;5015035;28;20205;-58
2022/09/17 05:48:47;;;;;;;0.50;0.50;;;;;;;;;;5017630;28;20212;-58
2022/09/17 05:51:14;;;;;;;3.53;0.90;;;;;;;;;;5023197;28;20197;-58
2022/09/17 05:53:41;;;;;;;0.70;0.70;;;;;;;;;;5022682;28;20207;-58
2022/09/17 05:56:08;;;;;;;0.50;0.50;;;;;;;;;;5022558;28;20211;-59
2022/09/17 05:58:35;;;;;;;2.53;0.60;;;;;;;;;;5018484;28;20205;-59
2022/09/17 06:01:03;;;;;;;0.77;0.67;;;;;;;;;;5028110;28;20204;-58
2022/09/17 06:03:31;;;;;;;2.73;0.60;;;;;;;;;;5021352;28;20204;-58
2022/09/17 06:05:59;;;;;;;0.80;0.80;;;;;;;;;;5014628;28;20204;-58
2022/09/17 06:08:27;;;;;;;0.57;0.57;;;;;;;;;;5018427;28;20197;-60
2022/09/17 06:10:54;;;;;;;2.10;0.70;;;;;;;;;;5019027;28;20208;-60
2022/09/17 06:13:22;;;;;;;1.60;0.80;;;;;;;;;;5018411;28;20205;-59
2022/09/17 06:15:52;;;;;;;2.80;0.60;;;;;;;;;;5021683;28;20204;-58
2022/09/17 06:18:19;;;;;;;1.20;0.70;;;;;;;;;;5019315;28;20274;-59
2022/09/17 06:20:54;;;;;;;0.60;0.60;;;;;;;;;;5020364;28;20248;-58
2022/09/17 06:23:22;;;;;;;2.43;0.77;;;;;;;;;;5020631;28;20672;-58
2022/09/17 06:25:53;;;;;;;0.67;0.67;;;;;;;;;;5015601;28;20233;-59
2022/09/17 06:28:20;;;;;;;1.10;0.60;;;;;;;;;;5020392;28;20216;-58
2022/09/17 06:30:48;;;;;;;3.10;1.03;;;;;;;;;;5018125;28;20197;-59
2022/09/17 06:33:15;;;;;;;1.83;0.70;;;;;;;;;;5011017;28;20757;-61
2022/09/17 06:35:42;;;;;;;0.80;0.80;;;;;;;;;;5012831;28;20607;-58
2022/09/17 06:38:11;;;;;;;12.50;1.13;;;;;;;;;;5013722;28;20299;-60
2022/09/17 06:40:38;;;;;;;0.73;0.73;;;;;;;;;;5026754;28;20268;-59
2022/09/17 06:43:05;;;;;;;3.60;1.10;;;;;;;;;;5015419;28;20212;-59
2022/09/17 06:45:32;;;;;;;1.17;1.03;;;;;;;;;;5013778;28;20211;-59
2022/09/17 06:48:03;;;;;;;0.93;0.53;;;;;;;;;;5013426;28;20690;-58
2022/09/17 06:50:30;;;;;;;0.50;0.50;;;;;;;;;;5027931;28;20208;-59
2022/09/17 06:52:57;;;;;;;2.77;0.60;;;;;;;;;;5015840;28;20214;-59
2022/09/17 06:55:32;;;;;;;0.87;0.73;;;;;;;;;;5021562;28;20958;-58
2022/09/17 06:58:00;;;;;;;0.77;0.77;;;;;;;;;;5012381;28;20209;-58
2022/09/17 07:00:27;;;;;;;0.60;0.50;;;;;;;;;;5011854;28;20829;-60
2022/09/17 07:02:57;;;;;;;0.60;0.57;;;;;;;;;;5019884;28;20208;-59
2022/09/17 07:05:24;;;;;;;4.37;0.67;;;;;;;;;;5015754;28;20212;-60
2022/09/17 07:07:51;;;;;;;0.60;0.60;;;;;;;;;;5012289;28;20295;-58
2022/09/17 07:10:18;;;;;;;2.63;0.83;;;;;;;;;;5018074;28;20201;-59
2022/09/17 07:12:47;;;;;;;4.50;0.60;;;;;;;;;;5011505;28;20580;-57
2022/09/17 07:15:14;;;;;;;1.40;0.70;;;;;;;;;;5026041;28;20200;-57
2022/09/17 07:17:41;;;;;;;1.20;0.83;;;;;;;;;;5024084;28;20330;-57
2022/09/17 07:20:09;;;;;;;3.43;1.00;;;;;;;;;;5015621;28;20270;-58
2022/09/17 07:22:36;;;;;;;0.83;0.70;;;;;;;;;;5018902;28;20213;-58
2022/09/17 07:25:04;;;;;;;0.70;0.70;;;;;;;;;;5018831;28;20244;-60
2022/09/17 07:27:31;;;;;;;2.23;0.77;;;;;;;;;;5022171;28;20205;-61
2022/09/17 07:30:00;;;;;;;5.53;0.88;;;;;;;;;;5013480;28;20209;-62
2022/09/17 07:32:29;;;;;;;1.27;0.70;;;;;;;;;;5019314;28;20201;-58
2022/09/17 07:34:56;;;;;;;1.50;0.83;;;;;;;;;;5023512;28;20213;-58
2022/09/17 07:37:23;;;;;;;1.60;0.70;;;;;;;;;;5012365;28;20201;-58
2022/09/17 07:39:50;;;;;;;1.57;0.50;;;;;;;;;;5024504;28;20261;-58
2022/09/17 07:42:17;;;;;;;0.80;0.80;;;;;;;;;;5015501;28;20204;-58
2022/09/17 07:44:45;;;;;;;0.60;0.60;;;;;;;;;;5011351;28;20270;-58
2022/09/17 07:47:13;;;;;;;0.70;0.67;;;;;;;;;;5018759;28;20213;-58
2022/09/17 07:49:41;;;;;;;0.97;0.80;;;;;;;;;;5016709;28;20231;-58
2022/09/17 07:52:08;;;;;;;1.73;0.60;;;;;;;;;;5026000;28;20200;-58
2022/09/17 07:54:36;;;;;;;0.70;0.63;;;;;;;;;;5017053;28;20217;-60
2022/09/17 07:57:03;;;;;;;0.67;0.67;;;;;;;;;;5023696;28;20203;-58
2022/09/17 07:59:30;;;;;;;2.47;0.80;;;;;;;;;;5018403;28;21931;-57
2022/09/17 08:01:57;;;;;;;6.83;1.10;;;;;;;;;;5009126;28;20213;-58
2022/09/17 08:04:25;;;;;;;2.80;0.73;;;;;;;;;;5016997;28;20204;-57
2022/09/17 08:06:52;;;;;;;1.73;0.60;;;;;;;;;;5021441;28;20259;-58
2022/09/17 08:09:19;;;;;;;2.23;0.73;;;;;;;;;;5018755;28;20664;-58
2022/09/17 08:11:47;;;;;;;1.83;0.57;;;;;;;;;;5022268;28;20283;-58
2022/09/17 08:14:15;;;;;;;1.55;0.70;;;;;;;;;;5021387;28;20227;-58
2022/09/17 08:16:44;;;;;;;0.68;0.68;;;;;;;;;;5022645;28;20204;-58
2022/09/17 08:19:11;;;;;;;0.77;0.73;;;;;;;;;;5009846;28;20240;-58
2022/09/17 08:21:39;;;;;;;1.40;0.50;;;;;;;;;;5028651;28;20691;-58
2022/09/17 08:24:06;;;;;;;2.40;0.65;;;;;;;;;;5026557;28;20735;-58
2022/09/17 08:26:34;;;;;;;4.07;0.80;;;;;;;;;;5013206;28;20201;-58
2022/09/17 08:29:01;;;;;;;1.90;0.50;;;;;;;;;;5016203;28;20642;-57
2022/09/17 08:31:29;;;;;;;1.48;0.85;;;;;;;;;;5027538;28;20211;-57
2022/09/17 08:33:56;;;;;;;3.20;0.60;;;;;;;;;;5012657;28;20217;-58
2022/09/17 08:36:25;;;;;;;1.85;0.75;;;;;;;;;;5025597;28;20215;-58
2022/09/17 08:38:54;;;;;;;0.70;0.63;;;;;;;;;;5010341;28;20243;-58
2022/09/17 08:41:24;;;;;;;3.15;0.70;;;;;;;;;;5019100;28;20229;-58
2022/09/17 08:43:56;;;;;;;2.17;0.65;;;;;;;;;;5026430;28;20212;-58
2022/09/17 08:46:24;;;;;;;3.88;0.60;;;;;;;;;;5023029;28;20742;-58
2022/09/17 08:48:53;;;;;;;2.77;0.53;;;;;;;;;;5011308;28;20224;-58
2022/09/17 08:51:27;;;;;;;2.38;0.63;;;;;;;;;;5029541;28;20231;-57
2022/09/17 08:54:00;;;;;;;0.90;0.60;;;;;;;;;;5021809;28;20208;-57
2022/09/17 08:56:27;;;;;;;2.43;0.80;;;;;;;;;;5016709;28;20642;-58
2022/09/17 08:58:58;;;;;;;0.40;0.40;;;;;;;;;;5019944;28;20205;-56
2022/09/17 09:01:30;;;;;;;1.75;0.77;;;;;;;;;;5016084;28;20227;-57
2022/09/17 09:04:15;;;;;;;0.70;0.70;;;;;;;;;;5023489;28;20201;-60
2022/09/17 09:06:44;;;;;;;1.88;0.70;;;;;;;;;;5010068;28;20575;-58
2022/09/17 09:09:14;;;;;;;0.60;0.60;;;;;;;;;;5033001;28;20207;-59
2022/09/17 09:11:42;;;;;;;0.45;0.45;;;;;;;;;;5016036;28;20212;-59
2022/09/17 09:14:12;;;;;;;1.48;0.60;;;;;;;;;;5020214;28;20259;-59
2022/09/17 09:16:40;;;;;;;0.85;0.68;;;;;;;;;;5028020;28;20211;-59
2022/09/17 09:19:14;;;;;;;0.50;0.50;;;;;;;;;;5014269;28;20319;-59
2022/09/17 09:21:45;;;;;;;3.05;0.75;;;;;;;;;;5016005;28;20228;-59
2022/09/17 09:24:20;;;;;;;0.43;0.43;;;;;;;;;;5017701;28;20256;-59
2022/09/17 09:26:48;;;;;;;1.75;0.40;;;;;;;;;;5015888;28;20212;-59
2022/09/17 09:29:20;;;;;;;1.15;0.43;;;;;;;;;;5025406;28;20615;-59
2022/09/17 09:32:08;;;;;;;1.77;0.70;;;;;;;;;;5026837;28;20208;-62
2022/09/17 09:34:35;;;;;;;2.13;0.50;;;;;;;;;;5013232;28;20197;-59
2022/09/17 09:37:10;;;;;;;0.40;0.40;;;;;;;;;;5024482;28;20209;-59
2022/09/17 09:39:40;;;;;;;2.38;0.50;;;;;;;;;;5015829;28;20690;-60
2022/09/17 09:42:10;;;;;;;0.57;0.50;;;;;;;;;;5017895;28;20220;-59
2022/09/17 09:44:37;;;;;;;0.77;0.63;;;;;;;;;;5017277;28;20634;-59
2022/09/17 09:47:23;;;;;;;1.55;0.60;;;;;;;;;;5016848;28;20675;-59
2022/09/17 09:49:55;;;;;;;2.03;0.50;;;;;;;;;;5025743;28;20288;-58
2022/09/17 09:52:28;;;;;;;1.77;0.63;;;;;;;;;;5025452;28;20290;-60
2022/09/17 09:55:05;;;;;;;0.30;0.30;;;;;;;;;;5009950;28;20213;-59
2022/09/17 09:57:35;;;;;;;0.20;0.20;;;;;;;;;;5011861;28;20212;-60
2022/09/17 10:00:21;;;;;;;0.35;0.35;;;;;;;;;;5016403;28;20204;-59
2022/09/17 10:02:48;;;;;;;1.75;0.40;;;;;;;;;;5014080;28;20262;-60
2022/09/17 10:05:16;;;;;;;0.32;0.32;;;;;;;;;;5017723;28;20266;-59
2022/09/17 10:07:44;;;;;;;1.80;0.57;;;;;;;;;;5019041;28;20229;-57
2022/09/17 10:10:12;;;;;;;0.55;0.30;;;;;;;;;;5016308;28;20263;-59
2022/09/17 10:12:39;;;;;;;1.02;0.22;;;;;;;;;;5012960;28;20217;-60
2022/09/17 10:15:23;;;;;;;0.20;0.20;;;;;;;;;;5029402;28;20220;-60
2022/09/17 10:17:50;;;;;;;3.13;0.32;;;;;;;;;;5021610;28;20238;-60
2022/09/17 10:20:18;;;;;;;1.88;0.40;;;;;;;;;;5018633;28;20352;-59
2022/09/17 10:22:45;;;;;;;0.50;0.22;;;;;;;;;;5020264;28;20204;-59
2022/09/17 10:25:23;;;;;;;0.30;0.30;;;;;;;;;;5018359;28;20241;-59
2022/09/17 10:27:51;;;;;;;0.40;0.40;;;;;;;;;;5024294;28;20212;-59
2022/09/17 10:30:18;;;;;;;1.55;0.32;;;;;;;;;;5012549;28;20259;-59
2022/09/17 10:33:05;;;;;;;0.40;0.40;;;;;;;;;;5013677;28;20757;-59
2022/09/17 10:35:33;;;;;;;0.30;0.30;;;;;;;;;;5011794;28;20637;-59
2022/09/17 10:38:01;;;;;;;0.82;0.82;;;;;;;;;;5011986;28;20872;-59
2022/09/17 10:40:30;;;;;;;1.17;0.40;;;;;;;;;;5011679;28;20290;-60
2022/09/17 10:43:19;;;;;;;0.55;0.40;;;;;;;;;;5022814;28;20243;-59
2022/09/17 10:45:55;;;;;;;0.32;0.30;;;;;;;;;;5011278;28;20598;-59
2022/09/17 10:48:23;;;;;;;1.05;0.30;;;;;;;;;;5031393;28;20302;-59
2022/09/17 10:50:52;;;;;;;1.95;0.30;;;;;;;;;;5029750;28;20293;-59
2022/09/17 10:53:22;;;;;;;2.15;0.40;;;;;;;;;;5031064;28;20208;-58
2022/09/17 10:55:52;;;;;;;0.68;0.55;;;;;;;;;;5027561;28;20220;-59
2022/09/17 10:58:29;;;;;;;1.45;0.30;;;;;;;;;;5031004;28;20204;-59
2022/09/17 11:01:03;;;;;;;0.50;0.30;;;;;;;;;;5028839;28;20279;-59
2022/09/17 11:03:48;;;;;;;1.10;0.40;;;;;;;;;;5031515;28;20212;-59
2022/09/17 11:06:21;;;;;;;0.20;0.20;;;;;;;;;;5026737;28;20209;-59
2022/09/17 11:08:53;;;;;;;0.57;0.30;;;;;;;;;;5030791;28;20281;-59
2022/09/17 11:11:36;;;;;;;1.75;0.28;;;;;;;;;;5029194;28;20298;-59
2022/09/17 11:14:07;;;;;;;1.35;0.57;;;;;;;;;;5017437;28;20399;-59
2022/09/17 11:16:39;;;;;;;0.95;0.95;;;;;;;;;;5010783;28;20212;-59
2022/09/17 11:19:14;;;;;;;1.75;0.43;;;;;;;;;;5015739;28;20736;-59
2022/09/17 11:21:46;;;;;;;0.88;0.88;;;;;;;;;;5020433;28;20224;-60
2022/09/17 11:24:33;;;;;;;3.75;0.80;;;;;;;;;;5013344;28;20439;-58
2022/09/17 11:27:04;;;;;;;2.63;0.38;;;;;;;;;;5028233;28;20212;-60
2022/09/17 11:29:38;;;;;;;0.50;0.17;;;;;;;;;;5024612;28;20671;-59
2022/09/17 11:32:09;;;;;;;1.08;0.25;;;;;;;;;;5010965;28;20208;-59
2022/09/17 11:34:38;;;;;;;0.80;0.40;;;;;;;;;;5014781;28;20208;-59
2022/09/17 11:37:10;;;;;;;0.68;0.68;;;;;;;;;;5015634;28;20204;-59
2022/09/17 11:39:41;;;;;;;2.65;0.40;;;;;;;;;;5030100;28;20657;-60
2022/09/17 11:42:10;;;;;;;1.65;0.38;;;;;;;;;;5019636;28;20315;-60
2022/09/17 11:44:40;;;;;;;0.30;0.30;;;;;;;;;;5022188;28;20208;-60
2022/09/17 11:47:09;;;;;;;0.70;0.50;;;;;;;;;;5021033;28;20477;-60
2022/09/17 11:49:39;;;;;;;2.95;0.35;;;;;;;;;;5026906;28;20867;-59
2022/09/17 11:52:10;;;;;;;0.10;0.10;;;;;;;;;;5009451;28;20213;-64
2022/09/17 11:54:40;;;;;;;2.45;0.40;;;;;;;;;;5009729;28;20244;-59
2022/09/17 11:57:12;;;;;;;0.70;0.30;;;;;;;;;;5017748;28;20219;-60
2022/09/17 11:59:40;;;;;;;2.17;0.50;;;;;;;;;;5016680;28;20201;-59
2022/09/17 12:02:15;;;;;;;1.73;0.20;;;;;;;;;;5009783;28;20664;-59
2022/09/17 12:04:44;;;;;;;1.65;0.40;;;;;;;;;;5027658;28;20697;-59
2022/09/17 12:07:20;;;;;;;1.40;0.40;;;;;;;;;;5023364;28;20296;-60
2022/09/17 12:09:50;;;;;;;0.70;0.50;;;;;;;;;;5023742;28;20278;-59
2022/09/17 12:12:19;;;;;;;0.25;0.25;;;;;;;;;;5029528;28;20227;-60
2022/09/17 12:14:48;;;;;;;0.95;0.17;;;;;;;;;;5021853;28;20204;-59
2022/09/17 12:17:17;;;;;;;4.57;0.40;;;;;;;;;;5029182;28;21031;-60
2022/09/17 12:19:47;;;;;;;3.00;0.38;;;;;;;;;;5012620;28;20213;-60
2022/09/17 12:22:18;;;;;;;0.65;0.38;;;;;;;;;;5026646;28;20258;-60
2022/09/17 12:24:46;;;;;;;1.42;0.40;;;;;;;;;;5011879;28;20240;-60
2022/09/17 12:27:19;;;;;;;0.38;0.38;;;;;;;;;;5010689;28;20239;-63
2022/09/17 12:30:25;;;;;;;0.82;0.35;;;;;;;;;;5011140;28;20213;-60
2022/09/17 12:33:01;;;;;;;1.50;0.25;;;;;;;;;;4975594;28;20215;-60
2022/09/17 12:35:40;;;;;;;0.85;0.20;;;;;;;;;;4978512;28;20206;-60
2022/09/17 12:38:12;;;;;;;0.22;0.22;;;;;;;;;;4994004;28;20290;-60
2022/09/17 12:40:43;;;;;;;0.82;0.60;;;;;;;;;;5012871;28;20448;-59
2022/09/17 12:43:17;;;;;;;0.43;0.30;;;;;;;;;;5014660;28;20663;-59
2022/09/17 12:45:52;;;;;;;1.98;0.60;;;;;;;;;;5023468;28;20351;-59
2022/09/17 12:48:41;;;;;;;0.88;0.30;;;;;;;;;;5011161;28;20208;-59
2022/09/17 12:51:17;;;;;;;1.08;0.40;;;;;;;;;;5017038;28;20216;-59
2022/09/17 12:53:47;;;;;;;0.17;0.10;;;;;;;;;;5017555;28;20215;-59
2022/09/17 12:56:24;;;;;;;2.03;0.28;;;;;;;;;;5022761;28;20215;-59
2022/09/17 12:58:59;;;;;;;0.20;0.20;;;;;;;;;;5011738;28;20204;-59
2022/09/17 13:01:29;;;;;;;0.90;0.15;;;;;;;;;;5025468;28;20261;-59
2022/09/17 13:03:58;;;;;;;1.35;0.22;;;;;;;;;;5022484;28;20212;-60
2022/09/17 13:06:38;;;;;;;0.30;0.30;;;;;;;;;;5012752;28;20213;-60
2022/09/17 13:09:15;;;;;;;0.70;0.30;;;;;;;;;;5011730;28;20207;-58
2022/09/17 13:11:57;;;;;;;0.65;0.10;;;;;;;;;;5025517;28;20199;-58
2022/09/17 13:14:32;;;;;;;0.20;0.20;;;;;;;;;;5009963;28;20216;-58
2022/09/17 13:17:03;;;;;;;0.28;0.28;;;;;;;;;;5006993;28;20616;-59
2022/09/17 13:19:34;;;;;;;0.17;0.17;;;;;;;;;;5008880;28;20240;-58
2022/09/17 13:22:03;;;;;;;0.20;0.15;;;;;;;;;;5009069;28;20227;-59
2022/09/17 13:24:31;;;;;;;0.25;0.25;;;;;;;;;;5009802;28;20290;-58
2022/09/17 13:27:00;;;;;;;0.28;0.20;;;;;;;;;;5016212;28;20296;-58
2022/09/17 13:29:46;;;;;;;0.32;0.13;;;;;;;;;;5019363;28;20609;-58
2022/09/17 13:32:39;;;;;;;0.43;0.20;;;;;;;;;;5018822;28;20620;-59
2022/09/17 13:35:21;;;;;;;0.10;0.10;;;;;;;;;;5009111;28;20593;-59
2022/09/17 13:37:55;;;;;;;0.30;0.20;;;;;;;;;;5008501;28;20640;-59
2022/09/17 13:40:22;;;;;;;1.00;0.30;;;;;;;;;;5009940;28;20687;-59
2022/09/17 13:42:51;;;;;;;1.52;0.20;;;;;;;;;;5026583;28;20228;-58
2022/09/17 13:45:19;;;;;;;0.93;0.40;;;;;;;;;;5008142;28;20207;-58
2022/09/17 13:47:51;;;;;;;0.57;0.20;;;;;;;;;;5026115;28;20291;-58
2022/09/17 13:50:26;;;;;;;1.17;0.47;;;;;;;;;;5023295;28;20213;-59
2022/09/17 13:52:53;;;;;;;2.88;0.20;;;;;;;;;;5029505;28;20204;-59
2022/09/17 13:55:33;;;;;;;0.13;0.13;;;;;;;;;;5015212;28;20216;-60
2022/09/17 13:58:00;;;;;;;1.45;0.38;;;;;;;;;;5013002;28;20300;-59
2022/09/17 14:00:48;;;;;;;1.35;0.20;;;;;;;;;;5012378;28;20219;-58
2022/09/17 14:03:47;;;;;;;0.20;0.17;;;;;;;;;;5014834;28;20228;-60
2022/09/17 14:06:32;;;;;;;0.30;0.30;;;;;;;;;;5026501;28;20208;-59
2022/09/17 14:09:01;;;;;;;1.52;0.20;;;;;;;;;;5017872;28;20204;-59
2022/09/17 14:11:37;;;;;;;0.10;0.10;;;;;;;;;;5025897;28;20205;-59
2022/09/17 14:14:32;;;;;;;0.90;0.20;;;;;;;;;;5018857;28;20208;-59
2022/09/17 14:16:59;;;;;;;0.47;0.20;;;;;;;;;;5024685;28;20201;-59
2022/09/17 14:19:30;;;;;;;0.10;0.10;;;;;;;;;;5029923;28;20228;-60
2022/09/17 14:21:59;;;;;;;0.03;0.03;;;;;;;;;;5027891;28;20239;-59
2022/09/17 14:24:27;;;;;;;0.38;0.13;;;;;;;;;;5019034;28;20722;-59
2022/09/17 14:27:07;;;;;;;0.28;0.22;;;;;;;;;;5011540;28;20215;-59
2022/09/17 14:29:42;;;;;;;0.35;0.03;;;;;;;;;;5011085;28;20215;-61
2022/09/17 14:32:14;;;;;;;2.17;0.20;;;;;;;;;;5013629;28;20208;-60
2022/09/17 14:34:43;;;;;;;1.25;0.20;;;;;;;;;;5031248;28;20307;-58
2022/09/17 14:37:12;;;;;;;0.30;0.30;;;;;;;;;;5030980;28;20580;-61
2022/09/17 14:39:46;;;;;;;0.25;0.20;;;;;;;;;;5029180;28;20204;-60
2022/09/17 14:42:14;;;;;;;0.10;0.10;;;;;;;;;;5030664;28;20253;-58
2022/09/17 14:44:48;;;;;;;0.20;0.20;;;;;;;;;;5011837;28;20216;-59
2022/09/17 14:47:17;;;;;;;2.60;0.50;;;;;;;;;;5022392;28;20208;-60
2022/09/17 14:49:46;;;;;;;0.10;0.10;;;;;;;;;;5011669;28;20600;-59
2022/09/17 14:52:23;;;;;;;0.73;0.20;;;;;;;;;;5008599;28;20193;-58
2022/09/17 14:55:09;;;;;;;0.20;0.20;;;;;;;;;;5011546;28;20213;-59
2022/09/17 14:57:36;;;;;;;0.10;0.10;;;;;;;;;;5012659;28;20217;-59
2022/09/17 15:00:04;;;;;;;0.40;0.40;;;;;;;;;;5019836;28;20255;-60
2022/09/17 15:02:37;;;;;;;0.35;0.20;;;;;;;;;;5011054;28;20237;-59